Ufo 3 — IUNV — position and weather

sailwx.info

Track history (hours):
 
Tides and Currents Weather Stations Pressure Air Temp Water Temp Dewpoint Dewpoint Depression Visibility Wind Speed Wind Dir Waves Ship Positions

Ufo 3

Last reported at 2015-Sep-04 13:33 UTC. Time now 2015-Sep-05 03:47 UTC.
Position N 44°03' E 009°50'.

Length 28 m.

Type: Passenger vessel. MMSI: 247031600.

Date/timePositionNaut miles runAvg speedWind from/ knotsBaromVisibWave heightAir tempDewpointWater temp
2015-Sep-04 13:33N 44°03' E 009°50'5 1.7
2015-Sep-04 10:30N 44°06' E 009°44'8 8.2
2015-Sep-04 09:34N 44°04' E 009°54'3 3.5
2015-Sep-04 08:34N 44°06' E 009°50'3 2.8
2015-Sep-04 07:33N 44°03' E 009°50'1 0.9
2015-Sep-04 06:33N 44°03' E 009°49'1 1.3
2015-Sep-04 05:33N 44°03' E 009°51'0 0.0
2015-Sep-04 04:33N 44°03' E 009°51'3 0.2
2015-Sep-03 15:33N 44°04' E 009°55'3 3.4
2015-Sep-03 14:33N 44°03' E 009°50'3 3.3
2015-Sep-03 13:34N 44°04' E 009°54'0 0.0
2015-Sep-03 12:33N 44°04' E 009°54'0 0.1
2015-Sep-03 11:33N 44°04' E 009°55'3 3.4
2015-Sep-03 10:33N 44°03' E 009°50'3 3.4
2015-Sep-03 09:33N 44°04' E 009°54'0 0.1
2015-Sep-03 08:33N 44°04' E 009°55'3 3.1
2015-Sep-03 07:33N 44°03' E 009°51'0 0.0
2015-Sep-03 06:33N 44°03' E 009°51'0 0.0
2015-Sep-03 05:33N 44°03' E 009°51'0 0.0
2015-Sep-03 04:33N 44°03' E 009°51'0 0.0
2015-Sep-02 13:33N 44°03' E 009°50'6 2.0
2015-Sep-02 10:27N 44°06' E 009°43'1 0.5
2015-Sep-02 08:26N 44°06' E 009°44'8 8.8
2015-Sep-02 07:34N 44°04' E 009°54'3 3.0
2015-Sep-02 06:33N 44°03' E 009°51'0 0.0
2015-Sep-01 16:23N 44°03' E 009°51'2 0.1
2015-Aug-31 10:13N 44°03' E 009°48'4 6.8
2015-Aug-31 09:33N 44°04' E 009°54'3 3.3
2015-Aug-31 08:33N 44°03' E 009°50'3 2.4
2015-Aug-31 07:11N 44°05' E 009°54'3 4.7
2015-Aug-31 06:33N 44°03' E 009°51'0 0.0
2015-Aug-31 05:33N 44°03' E 009°51'0 0.0
2015-Aug-31 04:33N 44°03' E 009°51'0 0.0
2015-Aug-30 16:09N 44°03' E 009°51'0 0.7
2015-Aug-30 15:32N 44°03' E 009°50'0 0.1
2015-Aug-30 12:05N 44°03' E 009°50'0 0.4
2015-Aug-30 11:29N 44°03' E 009°50'0 0.0
2015-Aug-30 10:31N 44°03' E 009°50'0 0.1
2015-Aug-30 06:34N 44°03' E 009°51'3 0.2
2015-Aug-29 16:30N 44°04' E 009°54'3 3.0
2015-Aug-29 15:33N 44°03' E 009°50'2 0.3
2015-Aug-29 09:33N 44°05' E 009°51'2 1.8
2015-Aug-29 08:33N 44°03' E 009°51'2 1.6
2015-Aug-29 07:06N 44°04' E 009°54'2 4.6
2015-Aug-29 06:33N 44°03' E 009°51'0 0.0
2015-Aug-29 05:33N 44°03' E 009°51'0 0.0
2015-Aug-29 04:33N 44°03' E 009°51'0 0.0
2015-Aug-28 16:30N 44°03' E 009°51'1 1.1
2015-Aug-28 15:33N 44°04' E 009°50'0 0.0
2015-Aug-28 14:33N 44°04' E 009°50'0 0.0
2015-Aug-28 13:33N 44°04' E 009°50'0 0.0
2015-Aug-28 12:33N 44°04' E 009°50'0 0.0
2015-Aug-28 11:33N 44°04' E 009°50'0 0.0
2015-Aug-28 10:33N 44°04' E 009°50'0 0.0
2015-Aug-28 09:17N 44°04' E 009°50'0 0.0
2015-Aug-28 08:33N 44°04' E 009°50'0 0.0
2015-Aug-28 07:33N 44°04' E 009°50'0 0.0
2015-Aug-28 06:33N 44°04' E 009°50'0 0.0
2015-Aug-27 13:10N 44°04' E 009°50'0 0.0
2015-Aug-27 12:34N 44°04' E 009°50'0 0.0
2015-Aug-27 11:34N 44°04' E 009°50'0 0.0
2015-Aug-27 10:34N 44°04' E 009°50'0 0.0
2015-Aug-27 09:33N 44°04' E 009°50'0 0.0
2015-Aug-27 08:33N 44°04' E 009°50'0 0.0
2015-Aug-27 07:33N 44°04' E 009°50'0 0.0
2015-Aug-26 13:20N 44°04' E 009°50'0 0.0
2015-Aug-26 12:34N 44°04' E 009°50'0 0.0
2015-Aug-26 11:33N 44°04' E 009°50'0 0.0
2015-Aug-26 10:34N 44°04' E 009°50'0 0.0
2015-Aug-26 09:33N 44°04' E 009°50'  
Track history (hours):
 
Tides and Currents Weather Stations Pressure Air Temp Water Temp Dewpoint Dewpoint Depression Visibility Wind Speed Wind Dir Waves Ship Positions

Ufo 3

Last reported at 2015-Sep-04 13:33 UTC. Time now 2015-Sep-05 03:47 UTC.
Position N 44°03' E 009°50'.

Length 28 m.

Type: Passenger vessel. MMSI: 247031600.

Date/timePositionNaut miles runAvg speedWind from/ knotsBaromVisibWave heightAir tempDewpointWater temp
2015-Sep-04 13:33N 44°03' E 009°50'5 1.7
2015-Sep-04 10:30N 44°06' E 009°44'8 8.2
2015-Sep-04 09:34N 44°04' E 009°54'3 3.5
2015-Sep-04 08:34N 44°06' E 009°50'3 2.8
2015-Sep-04 07:33N 44°03' E 009°50'1 0.9
2015-Sep-04 06:33N 44°03' E 009°49'1 1.3
2015-Sep-04 05:33N 44°03' E 009°51'0 0.0
2015-Sep-04 04:33N 44°03' E 009°51'3 0.2
2015-Sep-03 15:33N 44°04' E 009°55'3 3.4
2015-Sep-03 14:33N 44°03' E 009°50'3 3.3
2015-Sep-03 13:34N 44°04' E 009°54'0 0.0
2015-Sep-03 12:33N 44°04' E 009°54'0 0.1
2015-Sep-03 11:33N 44°04' E 009°55'3 3.4
2015-Sep-03 10:33N 44°03' E 009°50'3 3.4
2015-Sep-03 09:33N 44°04' E 009°54'0 0.1
2015-Sep-03 08:33N 44°04' E 009°55'3 3.1
2015-Sep-03 07:33N 44°03' E 009°51'0 0.0
2015-Sep-03 06:33N 44°03' E 009°51'0 0.0
2015-Sep-03 05:33N 44°03' E 009°51'0 0.0
2015-Sep-03 04:33N 44°03' E 009°51'0 0.0
2015-Sep-02 13:33N 44°03' E 009°50'6 2.0
2015-Sep-02 10:27N 44°06' E 009°43'1 0.5
2015-Sep-02 08:26N 44°06' E 009°44'8 8.8
2015-Sep-02 07:34N 44°04' E 009°54'3 3.0
2015-Sep-02 06:33N 44°03' E 009°51'0 0.0
2015-Sep-01 16:23N 44°03' E 009°51'2 0.1
2015-Aug-31 10:13N 44°03' E 009°48'4 6.8
2015-Aug-31 09:33N 44°04' E 009°54'3 3.3
2015-Aug-31 08:33N 44°03' E 009°50'3 2.4
2015-Aug-31 07:11N 44°05' E 009°54'3 4.7
2015-Aug-31 06:33N 44°03' E 009°51'0 0.0
2015-Aug-31 05:33N 44°03' E 009°51'0 0.0
2015-Aug-31 04:33N 44°03' E 009°51'0 0.0
2015-Aug-30 16:09N 44°03' E 009°51'0 0.7
2015-Aug-30 15:32N 44°03' E 009°50'0 0.1
2015-Aug-30 12:05N 44°03' E 009°50'0 0.4
2015-Aug-30 11:29N 44°03' E 009°50'0 0.0
2015-Aug-30 10:31N 44°03' E 009°50'0 0.1
2015-Aug-30 06:34N 44°03' E 009°51'3 0.2
2015-Aug-29 16:30N 44°04' E 009°54'3 3.0
2015-Aug-29 15:33N 44°03' E 009°50'2 0.3
2015-Aug-29 09:33N 44°05' E 009°51'2 1.8
2015-Aug-29 08:33N 44°03' E 009°51'2 1.6
2015-Aug-29 07:06N 44°04' E 009°54'2 4.6
2015-Aug-29 06:33N 44°03' E 009°51'0 0.0
2015-Aug-29 05:33N 44°03' E 009°51'0 0.0
2015-Aug-29 04:33N 44°03' E 009°51'0 0.0
2015-Aug-28 16:30N 44°03' E 009°51'1 1.1
2015-Aug-28 15:33N 44°04' E 009°50'0 0.0
2015-Aug-28 14:33N 44°04' E 009°50'0 0.0
2015-Aug-28 13:33N 44°04' E 009°50'0 0.0
2015-Aug-28 12:33N 44°04' E 009°50'0 0.0
2015-Aug-28 11:33N 44°04' E 009°50'0 0.0
2015-Aug-28 10:33N 44°04' E 009°50'0 0.0
2015-Aug-28 09:17N 44°04' E 009°50'0 0.0
2015-Aug-28 08:33N 44°04' E 009°50'0 0.0
2015-Aug-28 07:33N 44°04' E 009°50'0 0.0
2015-Aug-28 06:33N 44°04' E 009°50'0 0.0
2015-Aug-27 13:10N 44°04' E 009°50'0 0.0
2015-Aug-27 12:34N 44°04' E 009°50'0 0.0
2015-Aug-27 11:34N 44°04' E 009°50'0 0.0
2015-Aug-27 10:34N 44°04' E 009°50'0 0.0
2015-Aug-27 09:33N 44°04' E 009°50'0 0.0
2015-Aug-27 08:33N 44°04' E 009°50'0 0.0
2015-Aug-27 07:33N 44°04' E 009°50'0 0.0
2015-Aug-26 13:20N 44°04' E 009°50'0 0.0
2015-Aug-26 12:34N 44°04' E 009°50'0 0.0
2015-Aug-26 11:33N 44°04' E 009°50'0 0.0
2015-Aug-26 10:34N 44°04' E 009°50'0 0.0
2015-Aug-26 09:33N 44°04' E 009°50'  

Dump ship's entire track history